Time;durP1;ratioP1;P1;durP2;ratioP2;P2;SDS_P1;SDS_P2;PMS_P1;PMS_P2;Temp;Humidity;BMP_temperature;BMP_pressure;BME280_temperature;BME280_humidity;BME280_pressure;Samples;Min_cycle;Max_cycle;Signal;HPM_P1;HPM_P2
2023/07/02 00:02:18;;;;;;;31.48;9.30;;;;;;;;;;4941767;28;20053;-62
2023/07/02 00:04:43;;;;;;;20.42;7.30;;;;;;;;;;4938882;28;20122;-65
2023/07/02 00:07:09;;;;;;;32.33;9.32;;;;;;;;;;4941274;28;20043;-63
2023/07/02 00:09:34;;;;;;;32.92;8.98;;;;;;;;;;4940172;28;20031;-65
2023/07/02 00:11:59;;;;;;;33.80;8.40;;;;;;;;;;4941140;28;20042;-66
2023/07/02 00:14:24;;;;;;;36.90;8.95;;;;;;;;;;4927502;28;20046;-64
2023/07/02 00:16:50;;;;;;;24.67;8.70;;;;;;;;;;4940885;28;20547;-64
2023/07/02 00:19:15;;;;;;;31.38;8.57;;;;;;;;;;4939700;28;20074;-61
2023/07/02 00:21:41;;;;;;;27.25;8.55;;;;;;;;;;4940649;28;20039;-64
2023/07/02 00:24:09;;;;;;;28.50;8.60;;;;;;;;;;4923959;28;20050;-62
2023/07/02 00:26:34;;;;;;;33.40;8.38;;;;;;;;;;4919247;28;20038;-64
2023/07/02 00:29:00;;;;;;;28.50;8.70;;;;;;;;;;4939325;28;20507;-63
2023/07/02 00:31:25;;;;;;;28.40;8.13;;;;;;;;;;4938897;28;20038;-62
2023/07/02 00:33:50;;;;;;;22.55;7.97;;;;;;;;;;4919438;28;20054;-62
2023/07/02 00:36:16;;;;;;;26.25;8.57;;;;;;;;;;4939559;28;20168;-63
2023/07/02 00:38:42;;;;;;;26.30;8.80;;;;;;;;;;4903974;28;20062;-63
2023/07/02 00:41:08;;;;;;;27.33;8.95;;;;;;;;;;4939974;28;20209;-62
2023/07/02 00:43:35;;;;;;;30.27;9.65;;;;;;;;;;4920596;28;20162;-62
2023/07/02 00:46:02;;;;;;;26.02;8.48;;;;;;;;;;4939533;28;20061;-74
2023/07/02 00:48:27;;;;;;;28.33;9.15;;;;;;;;;;4940149;28;20185;-76
2023/07/02 00:50:53;;;;;;;26.40;8.68;;;;;;;;;;4941519;28;20063;-75
2023/07/02 00:53:18;;;;;;;28.00;8.65;;;;;;;;;;4943347;28;20131;-73
2023/07/02 00:55:43;;;;;;;33.72;8.68;;;;;;;;;;4942543;28;20035;-72
2023/07/02 00:58:09;;;;;;;28.35;8.75;;;;;;;;;;4939262;28;20039;-75
2023/07/02 01:00:36;;;;;;;26.42;7.57;;;;;;;;;;4941354;28;20046;-74
2023/07/02 01:03:02;;;;;;;24.30;7.82;;;;;;;;;;4941313;28;20039;-73
2023/07/02 01:05:35;;;;;;;25.73;7.75;;;;;;;;;;4941088;28;20038;-73
2023/07/02 01:08:11;;;;;;;28.92;8.68;;;;;;;;;;4940709;28;20119;-71
2023/07/02 01:10:37;;;;;;;27.65;8.40;;;;;;;;;;4941283;28;20039;-74
2023/07/02 01:13:08;;;;;;;28.70;8.38;;;;;;;;;;4942224;28;20110;-72
2023/07/02 01:15:34;;;;;;;23.38;7.50;;;;;;;;;;4942314;28;20042;-73
2023/07/02 01:17:59;;;;;;;32.30;9.07;;;;;;;;;;4941564;28;20042;-71
2023/07/02 01:20:25;;;;;;;25.17;7.85;;;;;;;;;;4940207;28;20035;-76
2023/07/02 01:22:51;;;;;;;29.42;8.63;;;;;;;;;;4941225;28;20170;-75
2023/07/02 01:25:17;;;;;;;26.90;8.20;;;;;;;;;;4941749;28;20038;-76
2023/07/02 01:27:42;;;;;;;35.42;8.55;;;;;;;;;;4941378;28;20094;-74
2023/07/02 01:30:09;;;;;;;29.52;8.98;;;;;;;;;;4940944;28;20035;-74
2023/07/02 01:32:34;;;;;;;24.40;7.93;;;;;;;;;;4921225;28;20093;-74
2023/07/02 01:35:02;;;;;;;29.95;8.27;;;;;;;;;;4941160;28;20035;-74
2023/07/02 01:37:27;;;;;;;25.85;7.95;;;;;;;;;;4941677;28;20035;-74
2023/07/02 01:39:52;;;;;;;24.75;8.25;;;;;;;;;;4939182;28;20042;-72
2023/07/02 01:42:18;;;;;;;28.50;8.68;;;;;;;;;;4941603;28;20134;-74
2023/07/02 01:44:44;;;;;;;34.60;9.57;;;;;;;;;;4940146;28;20061;-73
2023/07/02 01:47:10;;;;;;;34.08;10.00;;;;;;;;;;4941488;28;20040;-76
2023/07/02 01:49:37;;;;;;;29.05;8.38;;;;;;;;;;4940107;28;20603;-75
2023/07/02 01:52:03;;;;;;;32.88;9.40;;;;;;;;;;4921469;28;20050;-74
2023/07/02 01:54:28;;;;;;;28.73;9.55;;;;;;;;;;4939510;28;20081;-75
2023/07/02 01:56:54;;;;;;;28.60;8.57;;;;;;;;;;4942517;28;20045;-75
2023/07/02 01:59:19;;;;;;;35.15;8.98;;;;;;;;;;4923708;28;20047;-76
2023/07/02 02:01:44;;;;;;;26.38;8.50;;;;;;;;;;4940722;28;20065;-75
2023/07/02 02:04:10;;;;;;;30.10;9.75;;;;;;;;;;4939975;28;20046;-73
2023/07/02 02:06:36;;;;;;;32.63;9.27;;;;;;;;;;4941535;28;22193;-75
2023/07/02 02:09:03;;;;;;;30.42;8.88;;;;;;;;;;4941117;28;20915;-72
2023/07/02 02:11:30;;;;;;;32.33;9.27;;;;;;;;;;4924152;28;20035;-76
2023/07/02 02:13:58;;;;;;;33.83;9.35;;;;;;;;;;4938795;28;20664;-74
2023/07/02 02:16:25;;;;;;;37.17;8.93;;;;;;;;;;4917548;28;20088;-74
2023/07/02 02:18:51;;;;;;;29.45;8.73;;;;;;;;;;4940868;28;20043;-74
2023/07/02 02:21:17;;;;;;;26.58;8.85;;;;;;;;;;4938526;28;20039;-73
2023/07/02 02:23:42;;;;;;;27.15;8.98;;;;;;;;;;4918240;28;20133;-73
2023/07/02 02:26:08;;;;;;;35.08;9.77;;;;;;;;;;4939257;28;20042;-73
2023/07/02 02:28:33;;;;;;;31.65;10.48;;;;;;;;;;4924335;28;20036;-74
2023/07/02 02:30:58;;;;;;;28.13;8.93;;;;;;;;;;4927114;28;20136;-74
2023/07/02 02:33:26;;;;;;;30.42;9.30;;;;;;;;;;4904830;28;20035;-73
2023/07/02 02:35:51;;;;;;;29.00;9.45;;;;;;;;;;4940594;28;20043;-75
2023/07/02 02:38:16;;;;;;;33.28;9.50;;;;;;;;;;4922717;28;20038;-75
2023/07/02 02:40:42;;;;;;;34.08;9.45;;;;;;;;;;4919481;28;20035;-74
2023/07/02 02:43:07;;;;;;;32.55;8.98;;;;;;;;;;4938613;28;20110;-75
2023/07/02 02:45:32;;;;;;;33.40;9.48;;;;;;;;;;4940971;28;20053;-73
2023/07/02 02:47:58;;;;;;;26.70;8.80;;;;;;;;;;4940032;28;20091;-73
2023/07/02 02:50:28;;;;;;;31.70;9.65;;;;;;;;;;4938766;28;20503;-75
2023/07/02 02:52:54;;;;;;;40.67;9.80;;;;;;;;;;4939673;28;20044;-73
2023/07/02 02:55:21;;;;;;;36.63;9.85;;;;;;;;;;4940395;28;20027;-73
2023/07/02 02:57:47;;;;;;;36.58;9.35;;;;;;;;;;4902796;28;20049;-72
2023/07/02 03:00:14;;;;;;;32.10;10.30;;;;;;;;;;4938213;28;20034;-75
2023/07/02 03:02:40;;;;;;;37.03;9.60;;;;;;;;;;4940008;28;20038;-73
2023/07/02 03:05:08;;;;;;;41.25;9.65;;;;;;;;;;4919309;28;21485;-73
2023/07/02 03:07:33;;;;;;;34.65;9.52;;;;;;;;;;4940038;28;20085;-74
2023/07/02 03:09:59;;;;;;;33.13;9.13;;;;;;;;;;4918888;28;20039;-74
2023/07/02 03:12:26;;;;;;;31.08;9.15;;;;;;;;;;4939800;28;20039;-73
2023/07/02 03:14:54;;;;;;;40.22;9.98;;;;;;;;;;4939039;28;20054;-73
2023/07/02 03:17:20;;;;;;;27.42;9.00;;;;;;;;;;4937836;28;20047;-73
2023/07/02 03:19:45;;;;;;;31.83;9.48;;;;;;;;;;4939590;28;20621;-73
2023/07/02 03:22:10;;;;;;;25.27;9.15;;;;;;;;;;4939346;28;20031;-66
2023/07/02 03:24:36;;;;;;;27.60;8.73;;;;;;;;;;4919106;28;20042;-73
2023/07/02 03:27:04;;;;;;;26.73;9.23;;;;;;;;;;4939948;28;21539;-73
2023/07/02 03:29:29;;;;;;;36.42;8.93;;;;;;;;;;4939096;28;20101;-73
2023/07/02 03:31:54;;;;;;;27.45;8.77;;;;;;;;;;4918327;28;20039;-73
2023/07/02 03:34:20;;;;;;;30.90;9.13;;;;;;;;;;4938005;28;20898;-73
2023/07/02 03:36:45;;;;;;;29.60;9.32;;;;;;;;;;4939211;28;20155;-74
2023/07/02 03:39:13;;;;;;;35.97;9.40;;;;;;;;;;4938339;28;20042;-72
2023/07/02 03:41:38;;;;;;;35.17;9.13;;;;;;;;;;4938919;28;20488;-73
2023/07/02 03:44:03;;;;;;;31.13;8.63;;;;;;;;;;4937977;28;20046;-74
2023/07/02 03:46:30;;;;;;;31.73;9.65;;;;;;;;;;4939062;28;20475;-74
2023/07/02 03:48:56;;;;;;;35.13;9.25;;;;;;;;;;4938745;28;20096;-75
2023/07/02 03:51:21;;;;;;;30.58;9.20;;;;;;;;;;4926138;28;20031;-72
2023/07/02 03:53:46;;;;;;;31.50;9.20;;;;;;;;;;4932704;28;20038;-73
2023/07/02 03:56:12;;;;;;;29.38;8.55;;;;;;;;;;4942258;28;20502;-72
2023/07/02 03:58:39;;;;;;;32.00;9.10;;;;;;;;;;4941603;28;20058;-72
2023/07/02 04:01:04;;;;;;;28.10;8.40;;;;;;;;;;4921933;28;20948;-73
2023/07/02 04:03:29;;;;;;;26.17;8.65;;;;;;;;;;4943172;28;20047;-73
2023/07/02 04:05:55;;;;;;;27.42;9.45;;;;;;;;;;4943408;28;20091;-74
2023/07/02 04:08:20;;;;;;;29.67;8.90;;;;;;;;;;4938629;28;20050;-73
2023/07/02 04:10:48;;;;;;;33.58;8.85;;;;;;;;;;4942482;28;20691;-72
2023/07/02 04:13:13;;;;;;;35.25;8.63;;;;;;;;;;4941208;28;20039;-72
2023/07/02 04:15:39;;;;;;;27.40;8.65;;;;;;;;;;4939797;28;20058;-75
2023/07/02 04:18:04;;;;;;;35.50;9.20;;;;;;;;;;4940984;28;20069;-74
2023/07/02 04:20:29;;;;;;;30.15;7.40;;;;;;;;;;4943315;28;20043;-76
2023/07/02 04:22:54;;;;;;;26.58;7.90;;;;;;;;;;4942962;28;20038;-76
2023/07/02 04:25:22;;;;;;;24.27;8.00;;;;;;;;;;4941579;28;20937;-74
2023/07/02 04:27:48;;;;;;;30.80;7.75;;;;;;;;;;4941403;28;20523;-74
2023/07/02 04:30:14;;;;;;;29.65;7.97;;;;;;;;;;4943600;28;20035;-74
2023/07/02 04:32:39;;;;;;;23.50;7.72;;;;;;;;;;4921812;28;20027;-72
2023/07/02 04:35:11;;;;;;;27.70;8.07;;;;;;;;;;4935747;28;20043;-71
2023/07/02 04:37:36;;;;;;;35.45;8.00;;;;;;;;;;4940088;28;20074;-74
2023/07/02 04:40:03;;;;;;;34.55;7.90;;;;;;;;;;4940154;28;20563;-74
2023/07/02 04:42:31;;;;;;;28.75;7.80;;;;;;;;;;4942392;28;20035;-72
2023/07/02 04:45:01;;;;;;;26.98;8.23;;;;;;;;;;4942316;28;20062;-73
2023/07/02 04:47:27;;;;;;;28.15;7.72;;;;;;;;;;4942396;28;20782;-74
2023/07/02 04:49:52;;;;;;;25.55;7.55;;;;;;;;;;4920089;28;20043;-74
2023/07/02 04:52:17;;;;;;;24.65;7.45;;;;;;;;;;4941571;28;20570;-70
2023/07/02 04:54:45;;;;;;;29.00;7.75;;;;;;;;;;4941336;28;20061;-70
2023/07/02 04:57:10;;;;;;;25.92;7.68;;;;;;;;;;4903119;28;20035;-72
2023/07/02 04:59:36;;;;;;;30.00;7.43;;;;;;;;;;4922566;28;20038;-72
2023/07/02 05:02:03;;;;;;;32.60;8.68;;;;;;;;;;4940069;28;20149;-72
2023/07/02 05:04:28;;;;;;;32.03;8.13;;;;;;;;;;4941683;28;21055;-74
2023/07/02 05:06:54;;;;;;;28.63;8.02;;;;;;;;;;4938830;28;20039;-71
2023/07/02 05:09:19;;;;;;;28.63;7.68;;;;;;;;;;4941560;28;20034;-74
2023/07/02 05:11:44;;;;;;;24.98;7.20;;;;;;;;;;4940773;28;20039;-75
2023/07/02 05:14:12;;;;;;;37.63;8.52;;;;;;;;;;4939627;28;20034;-73
2023/07/02 05:16:37;;;;;;;28.27;7.60;;;;;;;;;;4941425;28;20551;-72
2023/07/02 05:19:03;;;;;;;32.75;7.88;;;;;;;;;;4923983;28;20048;-74
2023/07/02 05:21:28;;;;;;;28.67;7.18;;;;;;;;;;4935011;28;20057;-74
2023/07/02 05:23:53;;;;;;;28.40;7.32;;;;;;;;;;4942926;28;20053;-73
2023/07/02 05:26:18;;;;;;;24.20;7.47;;;;;;;;;;4939313;28;20670;-74
2023/07/02 05:28:44;;;;;;;27.15;7.35;;;;;;;;;;4939159;28;20195;-73
2023/07/02 05:31:09;;;;;;;30.95;7.43;;;;;;;;;;4918702;28;20051;-72
2023/07/02 05:33:35;;;;;;;24.48;6.57;;;;;;;;;;4941112;28;20641;-72
2023/07/02 05:36:00;;;;;;;24.48;7.22;;;;;;;;;;4938098;28;22404;-72
2023/07/02 05:38:25;;;;;;;27.35;7.30;;;;;;;;;;4940519;28;20389;-63
2023/07/02 05:40:51;;;;;;;34.20;7.70;;;;;;;;;;4940376;28;20091;-66
2023/07/02 05:43:16;;;;;;;28.13;7.10;;;;;;;;;;4939269;28;20058;-63
2023/07/02 05:45:41;;;;;;;27.05;7.25;;;;;;;;;;4934607;28;20843;-63
2023/07/02 05:48:07;;;;;;;25.45;7.40;;;;;;;;;;4939030;28;20039;-65
2023/07/02 05:50:32;;;;;;;29.63;8.38;;;;;;;;;;4940296;28;20046;-66
2023/07/02 05:52:57;;;;;;;28.90;7.60;;;;;;;;;;4937363;28;20089;-66
2023/07/02 05:55:23;;;;;;;26.15;6.85;;;;;;;;;;4919498;28;20055;-66
2023/07/02 05:57:48;;;;;;;23.42;7.28;;;;;;;;;;4934290;28;20254;-67
2023/07/02 06:00:14;;;;;;;29.08;7.78;;;;;;;;;;4933507;28;22342;-67
2023/07/02 06:02:39;;;;;;;23.92;6.47;;;;;;;;;;4916868;28;20042;-66
2023/07/02 06:05:05;;;;;;;24.40;6.82;;;;;;;;;;4934859;28;20063;-67
2023/07/02 06:07:30;;;;;;;23.95;6.95;;;;;;;;;;4933388;28;20054;-67
2023/07/02 06:09:55;;;;;;;26.00;7.28;;;;;;;;;;4934522;28;20042;-66
2023/07/02 06:12:21;;;;;;;24.10;7.40;;;;;;;;;;4934329;28;20058;-66
2023/07/02 06:14:47;;;;;;;32.65;8.18;;;;;;;;;;4917383;28;20039;-66
2023/07/02 06:17:15;;;;;;;25.73;7.07;;;;;;;;;;4917219;28;20947;-65
2023/07/02 06:19:40;;;;;;;23.50;7.03;;;;;;;;;;4927922;28;20675;-65
2023/07/02 06:22:06;;;;;;;30.05;8.05;;;;;;;;;;4934109;28;20035;-66
2023/07/02 06:24:31;;;;;;;26.17;7.32;;;;;;;;;;4932569;28;20057;-67
2023/07/02 06:26:56;;;;;;;23.95;6.82;;;;;;;;;;4934336;28;20039;-69
2023/07/02 06:29:25;;;;;;;26.90;6.53;;;;;;;;;;4933733;28;20169;-67
2023/07/02 06:31:50;;;;;;;25.40;6.93;;;;;;;;;;4932591;28;20074;-67
2023/07/02 06:34:16;;;;;;;31.30;7.00;;;;;;;;;;4931490;28;20050;-68
2023/07/02 06:36:42;;;;;;;29.02;7.53;;;;;;;;;;4934444;28;20969;-65
2023/07/02 06:39:09;;;;;;;25.35;6.97;;;;;;;;;;4935955;28;20039;-64
2023/07/02 06:41:35;;;;;;;24.85;6.78;;;;;;;;;;4927340;28;20049;-66
2023/07/02 06:44:03;;;;;;;25.52;7.68;;;;;;;;;;4934109;28;20046;-67
2023/07/02 06:46:28;;;;;;;27.10;7.53;;;;;;;;;;4934213;28;20034;-66
2023/07/02 06:48:55;;;;;;;27.10;7.28;;;;;;;;;;4918390;28;22462;-66
2023/07/02 06:51:21;;;;;;;30.38;7.30;;;;;;;;;;4934496;28;20039;-68
2023/07/02 06:53:46;;;;;;;32.38;7.57;;;;;;;;;;4938062;28;20092;-64
2023/07/02 06:56:11;;;;;;;24.48;7.15;;;;;;;;;;4939947;28;20081;-65
2023/07/02 06:58:37;;;;;;;27.80;8.52;;;;;;;;;;4939619;28;20635;-67
2023/07/02 07:01:02;;;;;;;32.63;8.57;;;;;;;;;;4939907;28;20101;-65
2023/07/02 07:03:28;;;;;;;27.20;7.65;;;;;;;;;;4940750;28;20820;-68
2023/07/02 07:05:53;;;;;;;30.90;7.60;;;;;;;;;;4939355;28;20566;-67
2023/07/02 07:08:18;;;;;;;34.13;8.00;;;;;;;;;;4939843;28;20066;-67
2023/07/02 07:10:45;;;;;;;32.58;7.68;;;;;;;;;;4924933;28;20042;-66
2023/07/02 07:13:10;;;;;;;32.10;7.82;;;;;;;;;;4938964;28;20667;-67
2023/07/02 07:15:35;;;;;;;22.83;6.65;;;;;;;;;;4941465;28;20027;-68
2023/07/02 07:18:01;;;;;;;26.48;7.03;;;;;;;;;;4939085;28;20059;-68
2023/07/02 07:20:27;;;;;;;30.98;7.50;;;;;;;;;;4940851;28;20315;-66
2023/07/02 07:22:52;;;;;;;25.55;6.82;;;;;;;;;;4942135;28;20035;-64
2023/07/02 07:25:17;;;;;;;24.85;7.35;;;;;;;;;;4943972;28;20149;-68
2023/07/02 07:27:43;;;;;;;26.13;7.32;;;;;;;;;;4921880;28;20114;-69
2023/07/02 07:30:08;;;;;;;28.45;7.38;;;;;;;;;;4943004;28;20100;-64
2023/07/02 07:32:33;;;;;;;24.67;7.43;;;;;;;;;;4943330;28;20524;-65
2023/07/02 07:34:59;;;;;;;29.02;6.75;;;;;;;;;;4943336;28;20031;-65
2023/07/02 07:37:26;;;;;;;25.13;6.13;;;;;;;;;;4920903;28;20974;-65
2023/07/02 07:39:52;;;;;;;23.17;7.00;;;;;;;;;;4941399;28;21864;-66
2023/07/02 07:42:17;;;;;;;21.50;6.13;;;;;;;;;;4941916;28;20037;-66
2023/07/02 07:44:44;;;;;;;25.23;6.28;;;;;;;;;;4940419;28;20052;-64
2023/07/02 07:47:12;;;;;;;33.08;7.40;;;;;;;;;;4942440;28;20692;-65
2023/07/02 07:49:37;;;;;;;29.42;7.30;;;;;;;;;;4920978;28;20542;-65
2023/07/02 07:52:03;;;;;;;22.17;6.72;;;;;;;;;;4938393;28;20093;-64
2023/07/02 07:54:31;;;;;;;27.15;6.70;;;;;;;;;;4940737;28;21881;-65
2023/07/02 07:56:56;;;;;;;26.85;7.20;;;;;;;;;;4939287;28;20046;-66
2023/07/02 07:59:22;;;;;;;31.10;7.05;;;;;;;;;;4938958;28;20110;-66
2023/07/02 08:01:47;;;;;;;33.65;7.47;;;;;;;;;;4941264;28;20038;-64
2023/07/02 08:04:13;;;;;;;25.35;6.45;;;;;;;;;;4942712;28;20062;-66
2023/07/02 08:06:38;;;;;;;28.33;7.18;;;;;;;;;;4942435;28;23006;-64
2023/07/02 08:09:03;;;;;;;30.75;7.25;;;;;;;;;;4942380;28;20049;-66
2023/07/02 08:11:29;;;;;;;28.42;7.25;;;;;;;;;;4943144;28;20067;-67
2023/07/02 08:13:57;;;;;;;23.90;6.53;;;;;;;;;;4941912;28;20129;-71
2023/07/02 08:16:24;;;;;;;31.83;7.18;;;;;;;;;;4920989;28;20049;-73
2023/07/02 08:18:50;;;;;;;31.05;6.70;;;;;;;;;;4939017;28;20039;-75
2023/07/02 08:21:15;;;;;;;31.15;7.20;;;;;;;;;;4941368;28;20100;-71
2023/07/02 08:23:42;;;;;;;31.17;7.47;;;;;;;;;;4941285;28;20053;-73
2023/07/02 08:26:07;;;;;;;31.38;7.70;;;;;;;;;;4943199;28;20101;-71
2023/07/02 08:28:32;;;;;;;27.83;7.85;;;;;;;;;;4931562;28;20492;-71
2023/07/02 08:30:58;;;;;;;30.67;7.20;;;;;;;;;;4918087;28;20061;-70
2023/07/02 08:33:24;;;;;;;31.33;7.45;;;;;;;;;;4932501;28;20049;-69
2023/07/02 08:35:49;;;;;;;31.92;7.60;;;;;;;;;;4939578;28;20031;-69
2023/07/02 08:38:15;;;;;;;32.08;6.50;;;;;;;;;;4942079;28;20038;-69
2023/07/02 08:40:40;;;;;;;30.38;6.85;;;;;;;;;;4914615;28;20384;-70
2023/07/02 08:43:06;;;;;;;29.15;6.20;;;;;;;;;;4939041;28;20088;-70
2023/07/02 08:45:33;;;;;;;24.75;6.63;;;;;;;;;;4939376;28;20716;-69
2023/07/02 08:47:59;;;;;;;25.58;5.85;;;;;;;;;;4938371;28;20062;-70
2023/07/02 08:50:25;;;;;;;24.17;6.25;;;;;;;;;;4941352;28;20151;-70
2023/07/02 08:52:50;;;;;;;31.30;6.55;;;;;;;;;;4937637;28;20114;-71
2023/07/02 08:55:16;;;;;;;29.00;6.20;;;;;;;;;;4934433;28;20162;-71
2023/07/02 08:57:53;;;;;;;29.05;6.65;;;;;;;;;;4918725;28;20050;-72
2023/07/02 09:00:19;;;;;;;28.55;5.65;;;;;;;;;;4939619;28;22457;-72
2023/07/02 09:02:45;;;;;;;35.50;7.22;;;;;;;;;;4942010;28;20038;-72
2023/07/02 09:05:10;;;;;;;34.40;7.30;;;;;;;;;;4940823;28;20050;-71
2023/07/02 09:07:52;;;;;;;35.30;6.38;;;;;;;;;;4940473;28;20571;-73
2023/07/02 09:10:34;;;;;;;31.38;6.63;;;;;;;;;;4937892;28;20118;-71
2023/07/02 09:13:02;;;;;;;27.70;6.13;;;;;;;;;;4941516;28;20889;-70
2023/07/02 09:15:34;;;;;;;24.20;6.45;;;;;;;;;;4939091;28;20125;-70
2023/07/02 09:17:59;;;;;;;;;;;;;;;;;;4939483;28;20898;-71
2023/07/02 09:20:32;;;;;;;30.57;6.50;;;;;;;;;;4922767;28;19918;-72
2023/07/02 09:22:57;;;;;;;25.33;6.10;;;;;;;;;;4942782;28;20286;-71
2023/07/02 09:25:35;;;;;;;35.58;6.32;;;;;;;;;;4923732;28;20045;-69
2023/07/02 09:28:00;;;;;;;33.58;6.63;;;;;;;;;;4941310;28;20039;-72
2023/07/02 09:30:26;;;;;;;29.55;6.70;;;;;;;;;;4939112;28;20113;-74
2023/07/02 09:33:05;;;;;;;30.85;6.25;;;;;;;;;;4936814;28;20039;-72
2023/07/02 09:35:30;;;;;;;25.02;6.38;;;;;;;;;;4919394;28;20035;-75
2023/07/02 09:37:56;;;;;;;30.70;7.00;;;;;;;;;;4938841;28;20098;-75
2023/07/02 09:40:24;;;;;;;25.33;5.72;;;;;;;;;;4939942;28;20797;-74
2023/07/02 09:42:52;;;;;;;28.42;6.57;;;;;;;;;;4918508;28;20498;-72
2023/07/02 09:45:17;;;;;;;33.42;7.03;;;;;;;;;;4922182;28;20400;-74
2023/07/02 09:47:47;;;;;;;31.67;6.63;;;;;;;;;;4939016;28;20094;-74
2023/07/02 09:50:14;;;;;;;29.92;6.47;;;;;;;;;;4940378;28;20035;-73
2023/07/02 09:52:39;;;;;;;30.98;6.82;;;;;;;;;;4939769;28;20057;-73
2023/07/02 09:55:06;;;;;;;27.92;6.40;;;;;;;;;;4939907;28;20042;-74
2023/07/02 09:57:31;;;;;;;26.33;6.53;;;;;;;;;;4941256;28;20453;-75
2023/07/02 09:59:59;;;;;;;35.97;6.95;;;;;;;;;;4937667;28;20061;-72
2023/07/02 10:02:24;;;;;;;37.15;7.05;;;;;;;;;;4917460;28;20050;-71
2023/07/02 10:04:54;;;;;;;31.60;6.90;;;;;;;;;;4938242;28;20130;-73
2023/07/02 10:07:27;;;;;;;24.90;6.78;;;;;;;;;;4940952;28;20130;-74
2023/07/02 10:09:52;;;;;;;32.00;6.90;;;;;;;;;;4940206;28;20038;-63
2023/07/02 10:12:18;;;;;;;32.50;7.13;;;;;;;;;;4941870;28;20054;-63
2023/07/02 10:14:44;;;;;;;25.30;6.45;;;;;;;;;;4937364;28;20035;-62
2023/07/02 10:17:31;;;;;;;29.00;6.93;;;;;;;;;;4920912;28;20055;-64
2023/07/02 10:20:00;;;;;;;32.83;6.78;;;;;;;;;;4922228;28;20137;-63
2023/07/02 10:22:26;;;;;;;25.65;6.70;;;;;;;;;;4940773;28;20484;-66
2023/07/02 10:24:52;;;;;;;29.67;7.15;;;;;;;;;;4938500;28;20051;-65
2023/07/02 10:27:17;;;;;;;30.65;7.40;;;;;;;;;;4939176;28;20038;-64
2023/07/02 10:29:49;;;;;;;31.92;7.05;;;;;;;;;;4934478;28;20042;-66
2023/07/02 10:32:25;;;;;;;26.63;7.18;;;;;;;;;;4939001;28;20051;-64
2023/07/02 10:34:50;;;;;;;21.30;6.40;;;;;;;;;;4937928;28;20039;-65
2023/07/02 10:37:16;;;;;;;24.75;6.68;;;;;;;;;;4938766;28;20072;-66
2023/07/02 10:39:41;;;;;;;38.05;7.93;;;;;;;;;;4918430;28;20046;-63
2023/07/02 10:42:07;;;;;;;36.88;8.30;;;;;;;;;;4938985;28;20139;-66
2023/07/02 10:44:33;;;;;;;31.42;7.72;;;;;;;;;;4939139;28;22241;-66
2023/07/02 10:46:58;;;;;;;34.35;7.65;;;;;;;;;;4940257;28;20035;-67
2023/07/02 10:49:30;;;;;;;34.35;7.53;;;;;;;;;;4935372;28;20085;-65
2023/07/02 10:52:02;;;;;;;43.63;8.27;;;;;;;;;;4917349;28;20758;-67
2023/07/02 10:54:39;;;;;;;34.65;7.82;;;;;;;;;;4939200;28;20047;-66
2023/07/02 10:57:07;;;;;;;39.38;7.65;;;;;;;;;;4940115;28;20105;-65
2023/07/02 10:59:32;;;;;;;35.28;7.38;;;;;;;;;;4937680;28;20035;-65
2023/07/02 11:02:01;;;;;;;33.42;7.05;;;;;;;;;;4935457;28;20213;-68
2023/07/02 11:04:27;;;;;;;33.17;7.05;;;;;;;;;;4941044;28;20042;-67
2023/07/02 11:06:52;;;;;;;34.00;7.72;;;;;;;;;;4916455;28;20154;-65
2023/07/02 11:09:20;;;;;;;30.33;6.65;;;;;;;;;;4941636;28;20031;-63
2023/07/02 11:12:06;;;;;;;25.92;6.65;;;;;;;;;;4941767;28;21537;-66
2023/07/02 11:14:31;;;;;;;24.23;6.82;;;;;;;;;;4928581;28;20637;-64
2023/07/02 11:16:57;;;;;;;24.08;6.47;;;;;;;;;;4937932;28;20065;-65
2023/07/02 11:19:23;;;;;;;28.75;6.30;;;;;;;;;;4923684;28;20042;-67
2023/07/02 11:21:58;;;;;;;27.95;7.05;;;;;;;;;;4941531;28;20909;-66
2023/07/02 11:24:31;;;;;;;27.08;6.45;;;;;;;;;;4942662;28;20050;-65
2023/07/02 11:26:57;;;;;;;33.15;7.45;;;;;;;;;;4924545;28;20038;-66
2023/07/02 11:29:22;;;;;;;34.25;7.57;;;;;;;;;;4942856;28;20877;-68
2023/07/02 11:31:47;;;;;;;29.63;7.43;;;;;;;;;;4939045;28;20074;-63
2023/07/02 11:34:16;;;;;;;35.05;7.65;;;;;;;;;;4940987;28;20156;-68
2023/07/02 11:36:42;;;;;;;40.80;8.18;;;;;;;;;;4939902;28;20405;-64
2023/07/02 11:39:10;;;;;;;31.42;6.85;;;;;;;;;;4941600;28;20049;-65
2023/07/02 11:41:38;;;;;;;38.42;7.30;;;;;;;;;;4941568;28;20592;-69
2023/07/02 11:44:04;;;;;;;30.35;6.85;;;;;;;;;;4923288;28;20050;-65
2023/07/02 11:46:29;;;;;;;26.45;6.13;;;;;;;;;;4920010;28;21000;-68
2023/07/02 11:48:54;;;;;;;20.92;5.82;;;;;;;;;;4937900;28;20045;-65
2023/07/02 11:51:22;;;;;;;29.58;6.53;;;;;;;;;;4938069;28;20045;-66
2023/07/02 11:53:50;;;;;;;23.27;6.47;;;;;;;;;;4916321;28;20123;-65
2023/07/02 11:56:15;;;;;;;26.15;6.32;;;;;;;;;;4915869;28;20043;-67
2023/07/02 11:58:41;;;;;;;28.35;6.13;;;;;;;;;;4919982;28;20051;-66
2023/07/02 12:01:06;;;;;;;34.15;7.03;;;;;;;;;;4916353;28;20039;-67
2023/07/02 12:03:31;;;;;;;24.98;6.55;;;;;;;;;;4917729;28;20051;-68
2023/07/02 12:05:57;;;;;;;30.52;7.28;;;;;;;;;;4918111;28;20046;-64
2023/07/02 12:08:24;;;;;;;32.70;7.45;;;;;;;;;;4913355;28;20031;-66
2023/07/02 12:10:49;;;;;;;30.83;6.63;;;;;;;;;;4917069;28;20051;-64
2023/07/02 12:13:15;;;;;;;22.33;5.97;;;;;;;;;;4917342;29;20508;-67
2023/07/02 12:15:40;;;;;;;31.00;6.80;;;;;;;;;;4917108;28;20907;-64
2023/07/02 12:18:06;;;;;;;31.50;6.82;;;;;;;;;;4900571;29;20150;-66
2023/07/02 12:20:31;;;;;;;28.05;6.93;;;;;;;;;;4909886;28;20034;-65
2023/07/02 12:22:57;;;;;;;34.15;6.70;;;;;;;;;;4917531;29;20039;-65
2023/07/02 12:25:23;;;;;;;29.88;7.30;;;;;;;;;;4917573;28;20122;-67
2023/07/02 12:27:48;;;;;;;31.52;6.88;;;;;;;;;;4918608;29;20537;-65
2023/07/02 12:30:17;;;;;;;26.10;6.65;;;;;;;;;;4898257;29;20073;-64
2023/07/02 12:32:45;;;;;;;37.40;7.93;;;;;;;;;;4916460;28;20766;-66
2023/07/02 12:35:10;;;;;;;32.03;7.53;;;;;;;;;;4918233;28;20138;-64
2023/07/02 12:37:42;;;;;;;32.03;7.15;;;;;;;;;;4914890;28;20035;-65
2023/07/02 12:40:08;;;;;;;38.45;7.50;;;;;;;;;;4914021;28;20039;-68
2023/07/02 12:42:33;;;;;;;30.40;6.80;;;;;;;;;;4912164;28;20039;-65
2023/07/02 12:44:59;;;;;;;28.38;7.10;;;;;;;;;;4910068;28;20055;-65
2023/07/02 12:47:24;;;;;;;31.92;7.20;;;;;;;;;;4914051;28;20082;-66
2023/07/02 12:49:49;;;;;;;24.13;6.93;;;;;;;;;;4910534;28;20071;-66
2023/07/02 12:52:15;;;;;;;32.40;7.20;;;;;;;;;;4914097;28;20043;-65
2023/07/02 12:54:40;;;;;;;37.63;7.70;;;;;;;;;;4913354;28;20492;-65
2023/07/02 12:57:05;;;;;;;33.33;7.57;;;;;;;;;;4898540;28;20050;-67
2023/07/02 12:59:31;;;;;;;31.60;7.35;;;;;;;;;;4916028;28;20138;-66
2023/07/02 13:01:56;;;;;;;26.80;6.85;;;;;;;;;;4914719;28;20055;-66
2023/07/02 13:04:24;;;;;;;30.65;7.82;;;;;;;;;;4919080;28;20133;-64
2023/07/02 13:06:49;;;;;;;31.45;7.85;;;;;;;;;;4896653;28;22346;-67
2023/07/02 13:09:14;;;;;;;40.60;8.05;;;;;;;;;;4917366;28;20113;-65
2023/07/02 13:11:40;;;;;;;31.40;7.22;;;;;;;;;;4915347;28;20093;-65
2023/07/02 13:14:05;;;;;;;33.15;7.38;;;;;;;;;;4892429;28;20054;-66
2023/07/02 13:16:30;;;;;;;29.45;7.78;;;;;;;;;;4915168;28;20040;-66
2023/07/02 13:18:56;;;;;;;37.22;7.28;;;;;;;;;;4901953;28;20760;-68
2023/07/02 13:21:22;;;;;;;31.67;6.68;;;;;;;;;;4916549;28;20035;-68
2023/07/02 13:23:47;;;;;;;37.03;7.88;;;;;;;;;;4912990;28;20053;-67
2023/07/02 13:26:12;;;;;;;23.05;6.75;;;;;;;;;;4915013;28;20098;-69
2023/07/02 13:28:38;;;;;;;21.83;6.82;;;;;;;;;;4898902;28;20039;-65
2023/07/02 13:31:03;;;;;;;34.00;7.10;;;;;;;;;;4893908;28;20042;-64
2023/07/02 13:33:30;;;;;;;30.10;6.93;;;;;;;;;;4915692;28;20027;-64
2023/07/02 13:35:56;;;;;;;27.38;6.90;;;;;;;;;;4914721;28;20043;-66
2023/07/02 13:38:21;;;;;;;28.55;7.13;;;;;;;;;;4916542;28;20047;-64
2023/07/02 13:40:46;;;;;;;26.92;6.93;;;;;;;;;;4916692;28;20151;-65
2023/07/02 13:43:12;;;;;;;22.95;6.05;;;;;;;;;;4897811;28;20035;-66
2023/07/02 13:45:37;;;;;;;26.52;6.47;;;;;;;;;;4917360;28;20973;-67
2023/07/02 13:48:03;;;;;;;32.35;7.03;;;;;;;;;;4913819;28;20035;-67
2023/07/02 13:50:28;;;;;;;25.83;6.50;;;;;;;;;;4916279;28;20035;-65
2023/07/02 13:52:53;;;;;;;26.77;6.38;;;;;;;;;;4918915;28;20909;-63
2023/07/02 13:55:20;;;;;;;22.48;6.60;;;;;;;;;;4935946;28;20045;-65
2023/07/02 13:57:46;;;;;;;27.45;6.70;;;;;;;;;;4937483;28;20109;-69
2023/07/02 14:00:13;;;;;;;20.02;6.00;;;;;;;;;;4936155;28;20138;-65
2023/07/02 14:02:39;;;;;;;31.83;6.82;;;;;;;;;;4936230;28;20047;-64
2023/07/02 14:05:07;;;;;;;23.88;6.57;;;;;;;;;;4934550;28;20047;-67
2023/07/02 14:07:32;;;;;;;28.52;6.82;;;;;;;;;;4935935;28;20065;-64
2023/07/02 14:09:57;;;;;;;21.42;6.75;;;;;;;;;;4921119;28;20039;-63
2023/07/02 14:12:22;;;;;;;31.05;6.95;;;;;;;;;;4936089;28;20027;-65
2023/07/02 14:14:50;;;;;;;26.38;6.90;;;;;;;;;;4936309;28;20035;-67
2023/07/02 14:17:16;;;;;;;32.20;6.70;;;;;;;;;;4936949;28;20049;-64
2023/07/02 14:19:41;;;;;;;34.42;7.55;;;;;;;;;;4936601;28;20705;-67
2023/07/02 14:22:06;;;;;;;27.58;6.25;;;;;;;;;;4934995;28;20054;-64
2023/07/02 14:24:33;;;;;;;26.63;6.28;;;;;;;;;;4917120;28;20039;-66
2023/07/02 14:26:59;;;;;;;25.50;6.10;;;;;;;;;;4914221;28;20117;-65